Time;durP1;ratioP1;P1;durP2;ratioP2;P2;SDS_P1;SDS_P2;PMS_P1;PMS_P2;Temp;Humidity;BMP_temperature;BMP_pressure;BME280_temperature;BME280_humidity;BME280_pressure;Samples;Min_cycle;Max_cycle;Signal;HPM_P1;HPM_P2
2023/01/27 00:01:48;;;;;;;14.05;5.30;;;;;;;7.36;78.94;100501.19;6341856;22;20082;-88
2023/01/27 00:04:15;;;;;;;11.93;5.07;;;;;;;7.41;78.94;100492.72;6334850;22;20108;-89
2023/01/27 00:06:41;;;;;;;12.27;4.53;;;;;;;7.22;78.45;100458.84;6308611;22;19998;-88
2023/01/27 00:09:10;;;;;;;17.35;5.35;;;;;;;7.26;78.52;100462.94;6331096;22;20045;-89
2023/01/27 00:14:49;;;;;;;13.32;5.28;;;;;;;7.07;78.71;100422.84;6331420;22;20061;-90
2023/01/27 00:17:23;;;;;;;14.20;5.18;;;;;;;7.34;78.82;100473.72;6359014;22;20009;-87
2023/01/27 00:24:34;;;;;;;17.23;5.63;;;;;;;7.35;78.73;100470.09;6361549;22;20049;-88
2023/01/27 00:25:57;;;;;;;13.75;5.72;;;;;;;7.23;78.74;100449.81;6358542;22;20033;-86
2023/01/27 00:28:30;;;;;;;15.13;4.68;;;;;;;7.36;78.80;100492.31;6311085;22;20040;-91
2023/01/27 00:31:00;;;;;;;15.52;5.43;;;;;;;7.46;78.93;100492.28;6358547;22;20019;-90
2023/01/27 00:33:34;;;;;;;9.85;5.00;;;;;;;7.51;78.88;100495.38;6309316;22;20106;-89
2023/01/27 00:36:36;;;;;;;17.77;5.68;;;;;;;7.51;79.07;100492.69;6358575;22;20019;-90
2023/01/27 00:39:07;;;;;;;18.52;7.15;;;;;;;7.47;79.43;100499.31;6355639;22;20025;-89
2023/01/27 00:41:33;;;;;;;16.48;6.03;;;;;;;7.48;79.23;100493.00;6359094;22;19995;-88
2023/01/27 00:44:04;;;;;;;17.90;5.80;;;;;;;7.49;78.98;100482.16;6357925;22;20010;-88
2023/01/27 00:46:42;;;;;;;15.60;5.85;;;;;;;7.50;79.39;100483.00;6356476;22;20072;-89
2023/01/27 00:49:12;;;;;;;20.17;5.75;;;;;;;7.51;79.23;100473.97;6331577;22;20038;-88
2023/01/27 00:51:41;;;;;;;15.07;5.88;;;;;;;7.52;78.80;100468.47;6354784;22;20046;-87
2023/01/27 00:54:07;;;;;;;18.95;5.60;;;;;;;7.46;79.08;100458.34;6356018;22;19998;-88
2023/01/27 00:56:35;;;;;;;17.35;6.15;;;;;;;7.57;78.82;100470.72;6330907;22;20003;-89
2023/01/27 00:59:02;;;;;;;17.50;5.97;;;;;;;7.51;79.14;100484.66;6357811;22;20034;-86
2023/01/27 01:01:28;;;;;;;20.58;6.10;;;;;;;7.54;79.07;100479.88;6355233;22;20039;-90
2023/01/27 01:04:14;;;;;;;16.15;5.43;;;;;;;7.50;79.01;100467.78;6362787;22;20007;-89
2023/01/27 01:06:41;;;;;;;16.77;5.90;;;;;;;7.45;78.92;100463.88;6357647;22;20076;-90
2023/01/27 01:09:56;;;;;;;14.23;5.38;;;;;;;7.32;79.32;100456.97;6341776;22;20013;-89
2023/01/27 01:12:55;;;;;;;19.90;5.88;;;;;;;7.53;79.59;100488.03;6365126;22;20054;-90
2023/01/27 01:15:30;;;;;;;14.35;5.63;;;;;;;7.47;79.16;100467.22;6360335;22;20026;-92
2023/01/27 01:17:57;;;;;;;16.45;5.47;;;;;;;7.41;79.57;100474.00;6359902;22;20025;-91
2023/01/27 01:20:23;;;;;;;15.73;5.80;;;;;;;7.52;79.70;100481.03;6358643;22;19998;-91
2023/01/27 01:23:19;;;;;;;19.27;6.18;;;;;;;7.51;79.98;100485.50;6362609;22;20062;-92
2023/01/27 01:28:33;;;;;;;13.30;5.88;;;;;;;7.54;80.30;100463.00;6270285;22;20022;-90
2023/01/27 01:34:46;;;;;;;17.42;6.05;;;;;;;7.64;80.44;100468.31;6299974;22;20023;-89
2023/01/27 01:37:41;;;;;;;18.50;6.07;;;;;;;7.67;80.04;100468.00;6267709;22;20023;-88
2023/01/27 01:40:24;;;;;;;14.02;5.30;;;;;;;7.70;79.92;100460.53;6264577;22;20016;-89
2023/01/27 01:43:00;;;;;;;16.85;6.07;;;;;;;7.57;79.96;100441.28;6216992;23;20007;-90
2023/01/27 01:45:46;;;;;;;15.65;5.18;;;;;;;7.58;80.23;100451.81;6264837;23;20060;-90
2023/01/27 01:50:56;;;;;;;14.57;5.63;;;;;;;7.42;80.56;100419.50;6325733;22;20018;-89
2023/01/27 01:53:37;;;;;;;17.65;6.07;;;;;;;7.54;80.74;100444.25;6285506;22;20011;-93
2023/01/27 01:56:46;;;;;;;19.27;6.15;;;;;;;7.56;80.87;100439.59;6297628;22;20055;-91
2023/01/27 01:59:58;;;;;;;18.67;6.20;;;;;;;7.70;80.61;100448.97;6358676;22;20015;-90
2023/01/27 02:05:20;;;;;;;17.77;6.50;;;;;;;7.64;81.58;100436.19;6312429;22;20019;-90
2023/01/27 02:07:56;;;;;;;17.77;6.70;;;;;;;7.44;81.96;100419.38;6272090;22;20262;-89
2023/01/27 02:11:08;;;;;;;17.80;6.43;;;;;;;7.49;81.95;100391.19;6300005;22;20389;-90
2023/01/27 02:16:38;;;;;;;15.82;6.28;;;;;;;7.42;82.59;100387.41;6343353;22;20029;-88
2023/01/27 02:19:08;;;;;;;20.55;7.25;;;;;;;7.53;82.56;100397.91;6310585;22;20062;-88
2023/01/27 02:21:34;;;;;;;22.25;6.78;;;;;;;7.56;82.34;100399.44;6334893;22;20007;-88
2023/01/27 02:24:14;;;;;;;21.45;6.53;;;;;;;7.40;82.51;100376.88;6282411;22;20079;-88
2023/01/27 02:26:44;;;;;;;23.60;6.45;;;;;;;7.56;82.65;100391.44;6353678;22;20041;-90
2023/01/27 02:29:34;;;;;;;13.57;6.47;;;;;;;7.43;82.63;100364.19;6330298;22;20026;-89
2023/01/27 02:32:04;;;;;;;21.33;6.28;;;;;;;7.53;83.10;100379.19;6359630;22;19995;-89
2023/01/27 02:34:34;;;;;;;16.33;6.78;;;;;;;7.57;83.24;100366.38;6308740;22;20079;-89
2023/01/27 02:37:08;;;;;;;16.27;6.15;;;;;;;7.61;82.88;100360.59;6362709;22;20016;-87
2023/01/27 02:39:42;;;;;;;21.13;6.47;;;;;;;7.58;83.44;100349.31;6306289;22;20015;-90
2023/01/27 02:42:11;;;;;;;18.45;6.57;;;;;;;7.48;83.58;100348.53;6282428;22;20003;-87
2023/01/27 02:44:37;;;;;;;18.42;6.72;;;;;;;7.55;83.69;100342.44;6304241;22;20007;-88
2023/01/27 02:47:11;;;;;;;19.60;6.35;;;;;;;7.64;83.35;100338.03;6307977;22;20083;-87
2023/01/27 02:49:38;;;;;;;21.45;6.65;;;;;;;7.52;83.36;100337.41;6328450;22;20007;-87
2023/01/27 02:52:07;;;;;;;17.90;6.70;;;;;;;7.33;83.92;100322.28;6352566;22;20055;-87
2023/01/27 02:54:35;;;;;;;22.17;7.15;;;;;;;7.30;84.31;100319.88;6297383;22;20082;-87
2023/01/27 02:57:04;;;;;;;20.95;7.45;;;;;;;7.56;84.09;100328.09;6329860;22;20393;-88
2023/01/27 02:59:29;;;;;;;16.67;6.65;;;;;;;7.55;84.08;100321.03;6329771;22;20003;-89
2023/01/27 03:01:57;;;;;;;20.47;7.17;;;;;;;7.50;84.44;100304.59;6330231;22;20006;-88
2023/01/27 03:04:24;;;;;;;19.60;6.35;;;;;;;7.50;84.27;100301.91;6303534;22;20263;-88
2023/01/27 03:06:54;;;;;;;21.63;6.88;;;;;;;7.35;84.38;100282.88;6306660;22;20022;-89
2023/01/27 03:09:37;;;;;;;15.18;6.45;;;;;;;7.52;84.59;100296.44;6303775;22;20007;-88
2023/01/27 03:12:20;;;;;;;22.90;7.40;;;;;;;7.37;84.82;100275.53;6359142;22;20003;-87
2023/01/27 03:20:18;;;;;;;24.83;6.80;;;;;;;7.51;84.12;100265.31;6334244;22;20062;-89
2023/01/27 03:22:44;;;;;;;20.55;6.53;;;;;;;7.45;83.97;100248.03;6281765;22;19998;-89
2023/01/27 03:25:14;;;;;;;18.20;6.30;;;;;;;7.53;83.79;100236.56;6305861;22;20014;-86
2023/01/27 03:27:44;;;;;;;15.80;6.53;;;;;;;7.43;83.46;100198.38;6275436;22;20013;-87
2023/01/27 03:30:14;;;;;;;19.42;7.55;;;;;;;7.57;83.59;100233.44;6324866;22;19998;-89
2023/01/27 03:32:45;;;;;;;17.85;6.60;;;;;;;7.51;83.90;100238.56;6330543;22;19999;-88
2023/01/27 03:35:15;;;;;;;16.35;6.20;;;;;;;7.49;84.44;100229.84;6358127;22;19987;-88
2023/01/27 03:47:07;;;;;;;19.27;6.75;;;;;;;7.39;84.88;100237.94;6308734;22;20122;-89
2023/01/27 03:50:10;;;;;;;22.17;7.45;;;;;;;7.34;84.97;100242.91;6300189;22;20033;-92
2023/01/27 03:53:20;;;;;;;16.40;6.15;;;;;;;7.43;85.04;100263.41;6270929;22;20065;-87
2023/01/27 03:55:49;;;;;;;20.65;7.47;;;;;;;7.52;85.15;100272.34;6326265;22;20031;-88
2023/01/27 03:58:26;;;;;;;17.70;7.25;;;;;;;7.50;85.27;100288.53;6299969;22;19991;-87
2023/01/27 04:01:15;;;;;;;23.40;7.38;;;;;;;7.48;85.60;100279.00;6330002;22;20062;-90
2023/01/27 04:09:56;;;;;;;22.58;6.75;;;;;;;7.52;85.37;100246.44;6299599;22;20027;-88
2023/01/27 04:12:24;;;;;;;22.35;7.00;;;;;;;7.28;85.48;100228.31;6321320;22;20034;-91
2023/01/27 04:15:13;;;;;;;18.00;7.03;;;;;;;7.31;85.47;100217.31;6309536;22;20062;-91
2023/01/27 04:20:38;;;;;;;18.63;7.20;;;;;;;7.47;85.91;100238.03;6280094;22;20016;-87
2023/01/27 04:23:24;;;;;;;20.25;7.10;;;;;;;7.52;85.34;100213.50;6264760;23;20020;-90
2023/01/27 04:28:22;;;;;;;23.80;7.13;;;;;;;7.51;85.12;100203.78;6337100;22;20021;-90
2023/01/27 04:30:50;;;;;;;20.52;8.15;;;;;;;7.52;85.64;100225.03;6335011;22;20030;-88
2023/01/27 04:33:41;;;;;;;22.60;7.25;;;;;;;7.47;86.00;100218.44;6355702;22;20015;-86
2023/01/27 04:36:25;;;;;;;25.65;6.85;;;;;;;7.34;86.05;100184.06;6334195;22;20023;-89
2023/01/27 04:38:53;;;;;;;17.00;6.22;;;;;;;7.42;86.31;100207.38;6332177;22;19991;-86
2023/01/27 04:41:19;;;;;;;17.88;7.22;;;;;;;7.44;86.44;100221.44;6338936;22;20010;-91
2023/01/27 04:43:47;;;;;;;18.23;6.55;;;;;;;7.40;86.53;100210.22;6334500;22;20014;-89
2023/01/27 04:46:16;;;;;;;20.55;7.22;;;;;;;7.31;86.04;100195.06;6281498;22;20250;-86
2023/01/27 04:48:44;;;;;;;16.50;7.28;;;;;;;7.50;86.07;100228.88;6366149;22;20015;-89
2023/01/27 04:53:50;;;;;;;22.33;7.67;;;;;;;7.42;86.40;100204.69;6306463;22;20026;-86
2023/01/27 04:57:04;;;;;;;25.90;8.32;;;;;;;7.43;86.54;100198.38;6288322;22;20268;-83
2023/01/27 04:59:49;;;;;;;23.02;7.18;;;;;;;7.38;86.87;100199.66;6359397;22;20019;-86
2023/01/27 05:02:25;;;;;;;25.75;7.85;;;;;;;7.28;87.31;100190.88;6329947;22;20031;-87
2023/01/27 05:04:52;;;;;;;;;;;;;;;7.56;87.45;100214.84;6350889;22;20027;-89
2023/01/27 05:07:39;;;;;;;25.95;8.43;;;;;;;7.29;88.06;100197.88;6355693;22;19928;-87
2023/01/27 05:10:07;;;;;;;16.63;6.40;;;;;;;7.34;88.17;100192.09;6260421;22;20034;-87
2023/01/27 05:13:30;;;;;;;24.20;7.47;;;;;;;7.42;88.20;100185.97;6309981;22;20015;-88
2023/01/27 05:16:43;;;;;;;23.08;7.22;;;;;;;7.58;88.40;100199.50;6324783;22;20281;31
2023/01/27 05:19:29;;;;;;;19.17;7.60;;;;;;;7.25;88.60;100151.03;6330044;22;20039;-88
2023/01/27 05:21:54;;;;;;;19.40;6.32;;;;;;;7.38;88.64;100159.53;6305424;22;20041;-85
2023/01/27 05:24:44;;;;;;;21.35;7.40;;;;;;;7.51;88.71;100185.88;6303704;22;20015;-87
2023/01/27 05:27:11;;;;;;;19.90;6.60;;;;;;;7.38;88.84;100182.78;6331288;22;20003;-89
2023/01/27 05:29:46;;;;;;;18.25;6.70;;;;;;;7.55;88.93;100200.66;6312472;22;20011;-91
2023/01/27 05:38:08;;;;;;;22.95;7.88;;;;;;;7.39;88.93;100145.16;6260142;22;20045;-90
2023/01/27 05:43:12;;;;;;;22.33;9.13;;;;;;;7.52;89.09;100176.88;6262392;22;20026;-87
2023/01/27 05:55:32;;;;;;;24.42;9.35;;;;;;;7.67;89.99;100179.84;6293424;22;20059;-87
2023/01/27 05:57:59;;;;;;;25.10;8.90;;;;;;;7.49;90.21;100150.47;6338910;22;19994;-92
2023/01/27 06:00:32;;;;;;;29.55;9.10;;;;;;;7.72;90.57;100196.28;6331011;22;20030;-90
2023/01/27 06:03:24;;;;;;;24.17;8.05;;;;;;;7.70;90.63;100200.97;6352670;22;20015;-91
2023/01/27 06:12:13;;;;;;;25.80;9.32;;;;;;;7.79;90.55;100188.50;6284206;22;20018;-90
2023/01/27 06:14:48;;;;;;;24.88;8.48;;;;;;;7.76;90.76;100189.63;6296153;22;20045;-87
2023/01/27 06:17:15;;;;;;;36.93;9.87;;;;;;;7.63;90.71;100156.25;6212757;22;20010;-87
2023/01/27 06:20:14;;;;;;;31.20;10.57;;;;;;;7.80;90.76;100184.84;6253913;22;20245;-87
2023/01/27 06:22:41;;;;;;;22.60;9.40;;;;;;;7.81;90.69;100194.53;6239663;22;20112;-88
2023/01/27 06:25:08;;;;;;;24.40;9.13;;;;;;;7.68;90.53;100148.59;6264917;22;20014;-88
2023/01/27 06:27:56;;;;;;;26.73;10.18;;;;;;;7.89;90.29;100178.56;6307297;22;20068;-91
2023/01/27 06:30:22;;;;;;;23.48;9.02;;;;;;;7.76;90.47;100146.81;6318151;22;20074;-90
2023/01/27 06:33:01;;;;;;;26.77;9.75;;;;;;;7.81;90.60;100149.88;6290555;22;20018;31
2023/01/27 06:38:41;;;;;;;29.73;10.93;;;;;;;7.99;90.66;100154.34;6307353;22;20235;-89
2023/01/27 06:41:54;;;;;;;29.55;9.27;;;;;;;7.86;90.46;100129.84;6332245;22;20021;-90
2023/01/27 06:44:22;;;;;;;26.73;8.82;;;;;;;7.84;90.40;100127.31;6331749;22;20010;-91
2023/01/27 06:46:52;;;;;;;19.85;7.25;;;;;;;7.99;90.34;100143.66;6310043;22;19999;-89
2023/01/27 06:49:47;;;;;;;22.10;8.13;;;;;;;8.08;90.19;100150.75;6300579;22;20014;-95
2023/01/27 06:55:10;;;;;;;26.70;9.80;;;;;;;7.87;90.76;100131.53;6327944;22;20076;-92
2023/01/27 06:58:20;;;;;;;31.83;10.65;;;;;;;8.14;90.67;100176.88;6330341;22;20021;-89
2023/01/27 07:03:24;;;;;;;28.83;9.77;;;;;;;8.13;90.40;100185.91;6290142;22;20023;-87
2023/01/27 07:06:06;;;;;;;33.53;10.27;;;;;;;8.18;90.55;100180.09;6266829;22;20234;-87
2023/01/27 07:08:33;;;;;;;29.15;9.77;;;;;;;8.01;90.60;100155.88;6288344;22;20337;-88
2023/01/27 07:11:04;;;;;;;27.02;10.75;;;;;;;8.04;90.57;100141.34;6262843;22;20101;-87
2023/01/27 07:13:33;;;;;;;30.90;10.30;;;;;;;8.22;90.63;100163.56;6206602;22;20023;-89
2023/01/27 07:16:44;;;;;;;29.90;10.75;;;;;;;8.36;90.69;100153.25;6293747;22;20012;-91
2023/01/27 07:26:59;;;;;;;28.42;9.85;;;;;;;8.16;90.53;100132.03;6280757;22;20362;-89
2023/01/27 07:29:26;;;;;;;32.25;11.57;;;;;;;8.11;90.65;100117.47;6281563;22;20019;-86
2023/01/27 07:31:52;;;;;;;32.00;10.52;;;;;;;8.38;90.53;100143.19;6258785;22;20000;-87
2023/01/27 07:34:21;;;;;;;30.88;11.07;;;;;;;8.22;90.24;100128.75;6285339;22;20000;-88
2023/01/27 07:36:47;;;;;;;30.90;10.40;;;;;;;8.22;90.12;100110.00;6235281;22;20014;-88
2023/01/27 07:39:42;;;;;;;27.25;9.52;;;;;;;8.16;90.38;100099.91;6265143;22;20042;-89
2023/01/27 07:42:15;;;;;;;25.20;10.17;;;;;;;8.23;90.92;100106.31;6297358;22;19999;-89
2023/01/27 07:45:16;;;;;;;34.53;10.20;;;;;;;8.20;90.66;100097.75;6314680;22;20033;-88
2023/01/27 07:48:24;;;;;;;29.52;10.52;;;;;;;8.37;90.87;100134.34;6342140;22;20058;-88
2023/01/27 07:52:00;;;;;;;33.58;10.60;;;;;;;8.38;90.40;100119.09;6360788;22;20018;-90
2023/01/27 07:54:54;;;;;;;28.98;10.63;;;;;;;8.20;90.54;100081.69;6343408;22;20011;-86
2023/01/27 07:57:26;;;;;;;28.13;9.77;;;;;;;8.39;90.68;100126.97;6329601;22;19990;-86
2023/01/27 07:59:56;;;;;;;22.65;8.80;;;;;;;8.20;91.30;100079.84;6323032;22;20091;-87
2023/01/27 08:02:31;;;;;;;29.88;10.75;;;;;;;8.22;91.47;100085.88;6326095;22;19990;-88
2023/01/27 08:05:01;;;;;;;33.97;11.75;;;;;;;8.39;91.63;100115.44;6361817;22;19994;-88
2023/01/27 08:08:12;;;;;;;27.52;11.18;;;;;;;8.51;91.51;100124.88;6318831;22;20044;-89
2023/01/27 08:13:45;;;;;;;33.08;11.05;;;;;;;8.58;91.02;100109.00;6301385;22;20015;-91
2023/01/27 08:16:38;;;;;;;28.63;10.68;;;;;;;8.58;90.68;100106.34;6302644;22;20059;-86
2023/01/27 08:22:10;;;;;;;33.58;10.70;;;;;;;8.48;91.18;100071.63;6354513;22;20032;-90
2023/01/27 08:29:45;;;;;;;32.33;11.07;;;;;;;8.61;91.42;100077.34;6295955;22;20026;-86
2023/01/27 08:32:11;;;;;;;28.55;9.05;;;;;;;8.61;91.37;100077.34;6271453;22;20020;-89
2023/01/27 08:34:56;;;;;;;25.27;10.45;;;;;;;8.63;91.45;100064.63;6249999;22;20107;-89
2023/01/27 08:37:24;;;;;;;25.55;10.10;;;;;;;8.85;91.04;100090.00;6263720;22;20015;-87
2023/01/27 08:40:03;;;;;;;23.98;9.00;;;;;;;8.82;91.39;100084.97;6276710;22;19991;-90
2023/01/27 08:43:12;;;;;;;25.40;9.63;;;;;;;8.80;91.84;100065.53;6296244;22;20012;-91
2023/01/27 08:46:05;;;;;;;31.60;11.32;;;;;;;8.75;91.62;100050.94;6293907;22;20069;-88
2023/01/27 08:48:59;;;;;;;28.17;9.98;;;;;;;8.84;91.28;100056.16;6299954;22;19991;-87
2023/01/27 08:51:27;;;;;;;28.45;10.13;;;;;;;8.87;91.05;100055.84;6279788;22;20004;-89
2023/01/27 08:54:03;;;;;;;31.33;11.05;;;;;;;8.93;90.91;100046.28;6247329;22;20347;-89
2023/01/27 08:56:31;;;;;;;25.53;10.40;;;;;;;8.92;90.73;100058.03;6248838;22;20007;-94
2023/01/27 08:58:59;;;;;;;29.55;10.65;;;;;;;8.92;90.65;100043.75;6244141;22;20060;-89
2023/01/27 09:01:25;;;;;;;27.88;10.70;;;;;;;8.86;91.14;100042.59;6222165;22;20044;-88
2023/01/27 09:03:52;;;;;;;31.33;10.57;;;;;;;8.79;90.69;100022.81;6272338;22;20023;-90
2023/01/27 09:06:24;;;;;;;30.50;10.90;;;;;;;9.01;90.31;100051.69;6272265;22;20018;-89
2023/01/27 09:09:08;;;;;;;30.88;11.32;;;;;;;9.04;90.38;100035.25;6244789;22;20051;-89
2023/01/27 09:11:40;;;;;;;29.58;11.27;;;;;;;9.14;90.07;100026.22;6250667;22;20003;-89
2023/01/27 09:14:06;;;;;;;28.20;9.80;;;;;;;9.19;90.11;100027.38;6259048;22;20181;-84
2023/01/27 09:16:38;;;;;;;30.20;10.80;;;;;;;8.95;90.00;99979.13;6242311;22;20020;-89
2023/01/27 09:21:41;;;;;;;28.27;10.77;;;;;;;9.15;89.48;99971.56;6293028;22;20053;-86
2023/01/27 09:24:08;;;;;;;30.23;10.35;;;;;;;9.40;88.91;99986.63;6233646;22;20016;-87
2023/01/27 09:26:35;;;;;;;28.48;9.27;;;;;;;9.17;88.98;99948.91;6230619;22;20079;-87
2023/01/27 09:29:02;;;;;;;27.48;9.98;;;;;;;9.19;88.39;99951.44;6282043;22;19999;-88
2023/01/27 09:31:32;;;;;;;28.42;10.38;;;;;;;9.34;88.33;99949.75;6253140;22;20080;-87
2023/01/27 09:33:58;;;;;;;30.35;10.35;;;;;;;9.43;87.91;99954.06;6253108;22;20000;-85
2023/01/27 09:36:27;;;;;;;26.13;9.93;;;;;;;9.58;87.17;99977.56;6281076;22;20048;-87
2023/01/27 09:39:11;;;;;;;24.40;9.52;;;;;;;9.45;87.43;99984.25;6208618;22;20019;-87
2023/01/27 09:42:21;;;;;;;31.83;11.15;;;;;;;9.62;87.26;100009.25;6263563;22;20098;-86
2023/01/27 09:44:55;;;;;;;27.65;11.32;;;;;;;9.31;86.88;99968.84;6293841;22;20057;-85
2023/01/27 09:48:11;;;;;;;27.42;11.23;;;;;;;9.51;87.22;100018.47;6296781;22;20428;-86
2023/01/27 09:51:04;;;;;;;28.95;10.32;;;;;;;9.27;87.96;100013.13;6273521;22;20007;-86
2023/01/27 10:25:18;;;;;;;35.33;11.98;;;;;;;8.65;93.11;99950.09;6335449;22;20022;-83
2023/01/27 10:27:52;;;;;;;32.03;10.63;;;;;;;8.77;93.09;99957.81;6289306;22;20130;-83
2023/01/27 10:30:34;;;;;;;27.35;10.52;;;;;;;8.85;93.09;99936.38;6344991;22;20481;-83
2023/01/27 10:33:19;;;;;;;31.40;11.50;;;;;;;8.96;93.22;99940.56;6307738;22;20063;-83
2023/01/27 10:35:52;;;;;;;30.60;11.63;;;;;;;8.88;92.88;99938.72;6336079;22;20044;-83
2023/01/27 10:38:36;;;;;;;36.53;11.98;;;;;;;9.14;91.59;99940.41;6332817;22;20010;-83
2023/01/27 10:41:35;;;;;;;29.30;11.15;;;;;;;9.25;90.94;99938.19;6335651;22;20013;-86
2023/01/27 10:44:06;;;;;;;29.73;11.18;;;;;;;9.49;89.74;99931.94;6284089;22;20073;-87
2023/01/27 10:46:50;;;;;;;39.40;17.20;;;;;;;9.56;89.11;99907.09;6307533;22;20003;-84
2023/01/27 10:49:23;;;;;;;30.92;12.57;;;;;;;9.75;88.56;99901.31;6282655;22;20328;-83
2023/01/27 10:52:17;;;;;;;32.10;11.93;;;;;;;9.90;87.06;99883.47;6284162;22;20102;-84
2023/01/27 10:55:05;;;;;;;29.27;11.25;;;;;;;10.14;85.77;99887.03;6301926;22;20068;-83
2023/01/27 10:57:44;;;;;;;31.00;11.80;;;;;;;10.32;85.57;99887.63;6282788;22;20037;-84
2023/01/27 11:00:35;;;;;;;33.15;11.98;;;;;;;10.34;85.18;99877.53;6307697;22;20059;-85
2023/01/27 11:03:23;;;;;;;31.63;11.23;;;;;;;10.28;85.41;99846.03;6336002;22;19999;-84
2023/01/27 11:05:52;;;;;;;32.47;11.73;;;;;;;10.53;84.17;99867.31;6292397;22;20483;-84
2023/01/27 11:08:20;;;;;;;26.85;12.50;;;;;;;10.60;84.02;99843.25;6286146;22;20081;-83
2023/01/27 11:13:36;;;;;;;29.65;11.77;;;;;;;10.78;83.16;99841.91;6313263;22;20021;-84
2023/01/27 11:16:02;;;;;;;30.40;11.55;;;;;;;10.76;82.85;99832.34;6308398;22;19995;-83
2023/01/27 11:18:30;;;;;;;24.92;11.45;;;;;;;10.71;82.15;99811.38;6257151;22;19995;-85
2023/01/27 11:21:11;;;;;;;25.15;10.70;;;;;;;10.90;81.98;99804.63;6309653;22;20513;-84
2023/01/27 11:23:45;;;;;;;35.47;11.65;;;;;;;10.61;82.15;99762.44;6343565;22;20089;-84
2023/01/27 11:26:19;;;;;;;25.38;10.65;;;;;;;10.61;82.79;99786.63;6287251;22;20063;-83
2023/01/27 11:29:05;;;;;;;24.48;10.60;;;;;;;10.48;82.74;99768.41;6308304;22;20334;-83
2023/01/27 11:32:07;;;;;;;;;;;;;;;10.69;82.30;99756.97;6335913;22;20006;-83
2023/01/27 11:34:53;;;;;;;23.85;9.93;;;;;;;10.49;82.90;99759.34;6208635;23;19904;-83
2023/01/27 11:37:23;;;;;;;28.20;11.50;;;;;;;10.52;83.47;99747.41;6326727;22;20083;-85
2023/01/27 11:39:49;;;;;;;27.17;10.98;;;;;;;10.58;82.76;99752.03;6282141;22;20459;-83
2023/01/27 11:42:16;;;;;;;26.25;10.13;;;;;;;10.48;82.37;99719.22;6306895;22;20006;-84
2023/01/27 11:44:42;;;;;;;22.85;10.65;;;;;;;10.62;81.85;99739.91;6279699;22;20167;-82
2023/01/27 11:47:09;;;;;;;26.45;11.02;;;;;;;10.54;81.94;99718.50;6307510;22;20026;-85
2023/01/27 11:49:39;;;;;;;27.80;10.40;;;;;;;10.75;80.75;99740.09;6307461;22;20022;-82
2023/01/27 11:52:12;;;;;;;37.85;11.02;;;;;;;10.54;81.77;99726.56;6282520;22;20007;-85
2023/01/27 11:55:05;;;;;;;30.73;11.35;;;;;;;10.72;80.71;99739.63;6281465;22;19999;-83
2023/01/27 11:57:32;;;;;;;21.70;9.90;;;;;;;10.79;80.66;99754.00;6334025;22;20019;-84
2023/01/27 12:00:07;;;;;;;;;;;;;;;10.76;80.40;99735.56;6306704;22;20013;-82
2023/01/27 12:02:38;;;;;;;17.17;9.03;;;;;;;10.72;79.94;99718.97;6335231;22;19902;-84
2023/01/27 12:05:13;;;;;;;23.48;9.70;;;;;;;10.56;81.07;99703.84;6256355;22;20025;-83
2023/01/27 12:08:33;;;;;;;31.42;10.73;;;;;;;10.98;80.54;99712.31;6283095;22;20007;-85
2023/01/27 12:11:28;;;;;;;26.00;9.75;;;;;;;11.04;79.82;99722.28;6238517;23;20000;-84
2023/01/27 12:13:58;;;;;;;29.02;10.05;;;;;;;10.82;80.58;99732.16;6313142;22;20010;-85
2023/01/27 12:16:26;;;;;;;25.67;10.52;;;;;;;10.89;80.85;99741.13;6334182;22;20007;-86
2023/01/27 12:18:57;;;;;;;28.77;10.98;;;;;;;10.62;81.93;99723.78;6312627;22;20156;-84
2023/01/27 12:21:37;;;;;;;24.77;11.02;;;;;;;10.96;81.07;99698.22;6312714;22;20054;-84
2023/01/27 12:24:05;;;;;;;25.27;9.95;;;;;;;10.91;79.94;99705.97;6289102;22;20475;-83
2023/01/27 12:26:38;;;;;;;24.08;9.40;;;;;;;10.98;79.68;99696.16;6296559;22;20041;-84
2023/01/27 12:29:54;;;;;;;27.98;9.82;;;;;;;10.77;78.93;99678.94;6310720;22;20003;-82
2023/01/27 12:32:33;;;;;;;27.85;10.07;;;;;;;10.70;79.92;99691.44;6300463;22;20046;-84
2023/01/27 12:34:58;;;;;;;27.60;10.32;;;;;;;10.74;80.16;99687.34;6283103;22;20384;-83
2023/01/27 12:37:33;;;;;;;27.05;10.07;;;;;;;10.62;80.67;99704.97;6282198;22;20019;-84
2023/01/27 12:40:01;;;;;;;19.27;9.80;;;;;;;10.67;79.92;99710.59;6309296;22;20122;-84
2023/01/27 12:42:43;;;;;;;31.90;9.93;;;;;;;10.80;79.67;99698.41;6325139;22;20097;-83
2023/01/27 12:45:30;;;;;;;29.63;9.55;;;;;;;10.94;79.39;99727.13;6314228;22;19995;-84
2023/01/27 12:48:00;;;;;;;28.35;11.07;;;;;;;11.02;78.92;99726.19;6283290;22;20107;-83
2023/01/27 12:50:33;;;;;;;29.20;11.30;;;;;;;11.04;79.04;99753.75;6345605;22;19995;-85
2023/01/27 12:53:15;;;;;;;31.75;13.00;;;;;;;10.89;79.35;99745.69;6318039;22;20006;-84
2023/01/27 12:55:45;;;;;;;28.55;11.27;;;;;;;10.58;79.97;99754.72;6308326;22;20387;-85
2023/01/27 12:58:35;;;;;;;30.85;11.65;;;;;;;10.60;79.84;99767.97;6283782;22;20079;-83
2023/01/27 13:01:32;;;;;;;30.58;11.88;;;;;;;10.73;80.09;99789.72;6336502;22;20002;-83
2023/01/27 13:04:18;;;;;;;25.88;10.55;;;;;;;10.29;80.45;99772.44;6310396;22;20060;-82
2023/01/27 13:06:53;;;;;;;;;;;;;;;10.57;80.23;99796.06;6289558;22;20078;-82
2023/01/27 13:09:37;;;;;;;31.90;10.95;;;;;;;10.07;81.58;99773.28;6313788;22;19902;-81
2023/01/27 13:12:15;;;;;;;28.15;10.43;;;;;;;10.11;82.21;99793.38;6336837;22;20003;-83
2023/01/27 13:14:41;;;;;;;29.27;9.93;;;;;;;10.05;81.57;99769.94;6309926;22;20333;-85
2023/01/27 13:17:24;;;;;;;31.58;11.27;;;;;;;10.05;82.06;99794.94;6282215;22;20006;-82
2023/01/27 13:19:52;;;;;;;32.17;10.60;;;;;;;10.04;82.24;99792.41;6308546;22;20140;-83
2023/01/27 13:22:19;;;;;;;30.45;10.48;;;;;;;10.18;81.65;99801.56;6281498;22;20037;-82
2023/01/27 13:24:45;;;;;;;26.42;10.75;;;;;;;10.23;81.36;99805.41;6306837;22;20450;-83
2023/01/27 13:27:13;;;;;;;29.40;11.30;;;;;;;10.25;81.14;99803.34;6281590;22;20008;-82
2023/01/27 13:29:39;;;;;;;30.73;10.73;;;;;;;10.27;79.96;99803.16;6282373;22;20006;-83
2023/01/27 13:32:11;;;;;;;26.35;9.70;;;;;;;10.26;79.82;99812.25;6308118;22;20006;-82
2023/01/27 13:34:49;;;;;;;24.30;10.02;;;;;;;10.42;79.84;99814.84;6282155;22;20110;-83
2023/01/27 13:37:39;;;;;;;24.90;9.35;;;;;;;10.43;79.12;99821.88;6334901;22;20048;-82
2023/01/27 13:40:13;;;;;;;24.60;8.57;;;;;;;10.28;78.38;99821.84;6308290;22;20090;-81
2023/01/27 13:43:00;;;;;;;21.20;8.02;;;;;;;10.15;79.41;99818.88;6337178;22;19998;-83
2023/01/27 13:45:40;;;;;;;20.90;8.35;;;;;;;10.24;78.98;99816.97;6312420;22;20005;-83
2023/01/27 13:48:23;;;;;;;17.98;6.75;;;;;;;10.01;78.03;99814.28;6308044;22;20509;-83
2023/01/27 13:51:10;;;;;;;16.52;7.38;;;;;;;10.10;78.29;99815.88;6281645;22;19999;-82
2023/01/27 13:53:38;;;;;;;20.67;7.50;;;;;;;10.17;78.62;99821.38;6313057;22;20097;-81
2023/01/27 13:56:19;;;;;;;19.73;7.97;;;;;;;10.05;79.07;99800.31;6285427;22;20006;-84
2023/01/27 13:59:09;;;;;;;23.65;8.63;;;;;;;10.27;79.66;99828.19;6335473;22;20007;-84
2023/01/27 14:01:55;;;;;;;26.05;8.60;;;;;;;10.13;80.93;99820.91;6335113;22;20052;-82
2023/01/27 14:04:29;;;;;;;32.33;9.02;;;;;;;10.13;80.95;99815.53;6282813;22;20283;-84
2023/01/27 14:07:11;;;;;;;27.60;9.05;;;;;;;10.24;80.53;99809.75;6334068;22;20005;-84
2023/01/27 14:09:53;;;;;;;27.10;9.57;;;;;;;10.21;80.87;99812.78;6284166;22;19996;-85
2023/01/27 14:12:47;;;;;;;29.30;9.20;;;;;;;10.31;80.73;99816.09;6284250;22;20009;-81
2023/01/27 14:15:42;;;;;;;30.33;10.40;;;;;;;10.21;80.89;99804.72;6311132;22;20007;-82
2023/01/27 14:18:15;;;;;;;27.70;10.90;;;;;;;10.38;80.55;99818.91;6332988;22;20014;-86
2023/01/27 14:21:12;;;;;;;28.35;9.98;;;;;;;10.32;80.38;99823.16;6335596;22;20789;-82
2023/01/27 14:24:14;;;;;;;28.35;9.80;;;;;;;10.30;80.38;99795.63;6308286;22;20014;-84
2023/01/27 14:26:46;;;;;;;25.25;9.63;;;;;;;10.36;80.78;99818.25;6282249;22;20015;-84
2023/01/27 14:29:14;;;;;;;27.67;10.23;;;;;;;10.24;80.58;99796.31;6336392;22;20007;-82
2023/01/27 14:32:19;;;;;;;26.30;10.13;;;;;;;10.32;81.12;99808.88;6335709;22;20064;-82
2023/01/27 14:35:22;;;;;;;28.63;9.33;;;;;;;10.30;81.61;99814.44;6247015;22;20050;-83